sensor_id;sensor_type;location;lat;lon;timestamp;temperature;humidity
2300;DHT22;1158;48.750;9.078;2023-05-16T00:01:48;9.50;99.90
2300;DHT22;1158;48.750;9.078;2023-05-16T00:04:15;9.60;99.90
2300;DHT22;1158;48.750;9.078;2023-05-16T00:06:42;9.50;99.90
2300;DHT22;1158;48.750;9.078;2023-05-16T00:09:08;9.60;99.90
2300;DHT22;1158;48.750;9.078;2023-05-16T00:11:42;9.60;99.90
2300;DHT22;1158;48.750;9.078;2023-05-16T00:14:09;9.70;99.90
2300;DHT22;1158;48.750;9.078;2023-05-16T00:16:36;9.80;99.90
2300;DHT22;1158;48.750;9.078;2023-05-16T00:19:02;9.90;99.90
2300;DHT22;1158;48.750;9.078;2023-05-16T00:21:29;9.90;99.90
2300;DHT22;1158;48.750;9.078;2023-05-16T00:23:56;9.90;99.90
2300;DHT22;1158;48.750;9.078;2023-05-16T00:26:23;9.90;99.90
2300;DHT22;1158;48.750;9.078;2023-05-16T00:28:54;9.90;99.90
2300;DHT22;1158;48.750;9.078;2023-05-16T00:31:21;10.00;99.90
2300;DHT22;1158;48.750;9.078;2023-05-16T00:33:48;10.00;99.90
2300;DHT22;1158;48.750;9.078;2023-05-16T00:36:15;10.00;99.90
2300;DHT22;1158;48.750;9.078;2023-05-16T00:38:42;10.00;99.90
2300;DHT22;1158;48.750;9.078;2023-05-16T00:41:09;10.00;99.90
2300;DHT22;1158;48.750;9.078;2023-05-16T00:43:35;10.10;99.90
2300;DHT22;1158;48.750;9.078;2023-05-16T00:46:05;10.10;99.90
2300;DHT22;1158;48.750;9.078;2023-05-16T00:48:32;10.10;99.90
2300;DHT22;1158;48.750;9.078;2023-05-16T00:51:00;10.10;99.90
2300;DHT22;1158;48.750;9.078;2023-05-16T00:53:27;10.10;99.90
2300;DHT22;1158;48.750;9.078;2023-05-16T00:55:55;10.00;99.90
2300;DHT22;1158;48.750;9.078;2023-05-16T00:58:22;10.10;99.90
2300;DHT22;1158;48.750;9.078;2023-05-16T01:00:50;10.10;99.90
2300;DHT22;1158;48.750;9.078;2023-05-16T01:03:18;10.10;99.90
2300;DHT22;1158;48.750;9.078;2023-05-16T01:05:45;10.00;99.90
2300;DHT22;1158;48.750;9.078;2023-05-16T01:08:12;10.00;99.90
2300;DHT22;1158;48.750;9.078;2023-05-16T01:10:43;10.00;99.90
2300;DHT22;1158;48.750;9.078;2023-05-16T01:13:19;9.90;99.90
2300;DHT22;1158;48.750;9.078;2023-05-16T01:15:54;9.90;99.90
2300;DHT22;1158;48.750;9.078;2023-05-16T01:18:29;9.80;99.90
2300;DHT22;1158;48.750;9.078;2023-05-16T01:20:59;9.80;99.90
2300;DHT22;1158;48.750;9.078;2023-05-16T01:23:39;9.70;99.90
2300;DHT22;1158;48.750;9.078;2023-05-16T01:26:14;9.70;99.90
2300;DHT22;1158;48.750;9.078;2023-05-16T01:28:43;9.60;99.90
2300;DHT22;1158;48.750;9.078;2023-05-16T01:31:11;9.60;99.90
2300;DHT22;1158;48.750;9.078;2023-05-16T01:33:37;9.60;99.90
2300;DHT22;1158;48.750;9.078;2023-05-16T01:36:10;9.60;99.90
2300;DHT22;1158;48.750;9.078;2023-05-16T01:38:41;9.60;99.90
2300;DHT22;1158;48.750;9.078;2023-05-16T01:41:17;9.50;99.90
2300;DHT22;1158;48.750;9.078;2023-05-16T01:43:48;9.50;99.90
2300;DHT22;1158;48.750;9.078;2023-05-16T01:46:20;9.50;99.90
2300;DHT22;1158;48.750;9.078;2023-05-16T01:48:52;9.50;99.90
2300;DHT22;1158;48.750;9.078;2023-05-16T01:51:21;9.40;99.90
2300;DHT22;1158;48.750;9.078;2023-05-16T01:53:50;9.40;99.90
2300;DHT22;1158;48.750;9.078;2023-05-16T01:56:20;9.30;99.90
2300;DHT22;1158;48.750;9.078;2023-05-16T01:58:47;9.30;99.90
2300;DHT22;1158;48.750;9.078;2023-05-16T02:01:15;9.40;99.90
2300;DHT22;1158;48.750;9.078;2023-05-16T02:03:42;9.30;99.90
2300;DHT22;1158;48.750;9.078;2023-05-16T02:06:08;9.30;99.90
2300;DHT22;1158;48.750;9.078;2023-05-16T02:08:35;9.30;99.90
2300;DHT22;1158;48.750;9.078;2023-05-16T02:11:02;9.20;99.90
2300;DHT22;1158;48.750;9.078;2023-05-16T02:13:30;9.20;99.90
2300;DHT22;1158;48.750;9.078;2023-05-16T02:15:56;9.20;99.90
2300;DHT22;1158;48.750;9.078;2023-05-16T02:18:23;9.20;99.90
2300;DHT22;1158;48.750;9.078;2023-05-16T02:20:51;9.20;99.90
2300;DHT22;1158;48.750;9.078;2023-05-16T02:23:17;9.20;99.90
2300;DHT22;1158;48.750;9.078;2023-05-16T02:25:44;9.30;99.90
2300;DHT22;1158;48.750;9.078;2023-05-16T02:28:11;9.30;99.90
2300;DHT22;1158;48.750;9.078;2023-05-16T02:30:39;9.40;99.90
2300;DHT22;1158;48.750;9.078;2023-05-16T02:33:06;9.40;99.90
2300;DHT22;1158;48.750;9.078;2023-05-16T02:35:33;9.30;99.90
2300;DHT22;1158;48.750;9.078;2023-05-16T02:38:00;9.30;99.90
2300;DHT22;1158;48.750;9.078;2023-05-16T02:40:26;9.30;99.90
2300;DHT22;1158;48.750;9.078;2023-05-16T02:42:54;9.40;99.90
2300;DHT22;1158;48.750;9.078;2023-05-16T02:45:21;9.40;99.90
2300;DHT22;1158;48.750;9.078;2023-05-16T02:47:49;9.30;99.90
2300;DHT22;1158;48.750;9.078;2023-05-16T02:50:15;9.30;99.90
2300;DHT22;1158;48.750;9.078;2023-05-16T02:52:42;9.30;99.90
2300;DHT22;1158;48.750;9.078;2023-05-16T02:55:09;9.30;99.90
2300;DHT22;1158;48.750;9.078;2023-05-16T02:57:36;9.20;99.90
2300;DHT22;1158;48.750;9.078;2023-05-16T03:00:04;9.20;99.90
2300;DHT22;1158;48.750;9.078;2023-05-16T03:02:31;9.20;99.90
2300;DHT22;1158;48.750;9.078;2023-05-16T03:04:59;9.20;99.90
2300;DHT22;1158;48.750;9.078;2023-05-16T03:07:26;9.20;99.90
2300;DHT22;1158;48.750;9.078;2023-05-16T03:09:52;9.10;99.90
2300;DHT22;1158;48.750;9.078;2023-05-16T03:12:19;9.20;99.90
2300;DHT22;1158;48.750;9.078;2023-05-16T03:14:46;9.10;99.90
2300;DHT22;1158;48.750;9.078;2023-05-16T03:17:12;9.10;99.90
2300;DHT22;1158;48.750;9.078;2023-05-16T03:19:39;9.10;99.90
2300;DHT22;1158;48.750;9.078;2023-05-16T03:22:07;9.10;99.90
2300;DHT22;1158;48.750;9.078;2023-05-16T03:24:34;9.10;99.90
2300;DHT22;1158;48.750;9.078;2023-05-16T03:27:00;9.00;99.90
2300;DHT22;1158;48.750;9.078;2023-05-16T03:29:28;9.10;99.90
2300;DHT22;1158;48.750;9.078;2023-05-16T03:31:54;9.00;99.90
2300;DHT22;1158;48.750;9.078;2023-05-16T03:34:21;9.00;99.90
2300;DHT22;1158;48.750;9.078;2023-05-16T03:36:49;9.00;99.90
2300;DHT22;1158;48.750;9.078;2023-05-16T03:39:17;9.00;99.90
2300;DHT22;1158;48.750;9.078;2023-05-16T03:41:44;9.00;99.90
2300;DHT22;1158;48.750;9.078;2023-05-16T03:44:12;9.00;99.90
2300;DHT22;1158;48.750;9.078;2023-05-16T03:46:39;9.00;99.90
2300;DHT22;1158;48.750;9.078;2023-05-16T03:49:05;9.00;99.90
2300;DHT22;1158;48.750;9.078;2023-05-16T03:51:32;9.00;99.90
2300;DHT22;1158;48.750;9.078;2023-05-16T03:53:59;9.00;99.90
2300;DHT22;1158;48.750;9.078;2023-05-16T03:56:27;9.00;99.90
2300;DHT22;1158;48.750;9.078;2023-05-16T03:58:54;9.00;99.90
2300;DHT22;1158;48.750;9.078;2023-05-16T04:01:20;9.10;99.90
2300;DHT22;1158;48.750;9.078;2023-05-16T04:03:47;9.10;99.90
2300;DHT22;1158;48.750;9.078;2023-05-16T04:06:15;9.10;99.90
2300;DHT22;1158;48.750;9.078;2023-05-16T04:08:42;9.10;99.90
2300;DHT22;1158;48.750;9.078;2023-05-16T04:11:09;9.10;99.90
2300;DHT22;1158;48.750;9.078;2023-05-16T04:13:37;9.20;99.90
2300;DHT22;1158;48.750;9.078;2023-05-16T04:16:05;9.20;99.90
2300;DHT22;1158;48.750;9.078;2023-05-16T04:18:31;9.30;99.90
2300;DHT22;1158;48.750;9.078;2023-05-16T04:20:58;9.30;99.90
2300;DHT22;1158;48.750;9.078;2023-05-16T04:23:25;9.30;99.90
2300;DHT22;1158;48.750;9.078;2023-05-16T04:25:52;9.40;99.90
2300;DHT22;1158;48.750;9.078;2023-05-16T04:28:21;9.40;99.90
2300;DHT22;1158;48.750;9.078;2023-05-16T04:30:49;9.40;99.90
2300;DHT22;1158;48.750;9.078;2023-05-16T04:33:16;9.50;99.90
2300;DHT22;1158;48.750;9.078;2023-05-16T04:35:43;9.50;99.90
2300;DHT22;1158;48.750;9.078;2023-05-16T04:38:09;9.60;99.90
2300;DHT22;1158;48.750;9.078;2023-05-16T04:40:36;9.60;99.90
2300;DHT22;1158;48.750;9.078;2023-05-16T04:43:03;9.60;99.90
2300;DHT22;1158;48.750;9.078;2023-05-16T04:45:29;9.60;99.90
2300;DHT22;1158;48.750;9.078;2023-05-16T04:47:57;9.70;99.90
2300;DHT22;1158;48.750;9.078;2023-05-16T04:50:24;9.70;99.90
2300;DHT22;1158;48.750;9.078;2023-05-16T04:52:51;9.80;99.90
2300;DHT22;1158;48.750;9.078;2023-05-16T04:55:18;9.80;99.90
2300;DHT22;1158;48.750;9.078;2023-05-16T04:57:44;9.90;99.90
2300;DHT22;1158;48.750;9.078;2023-05-16T05:00:12;9.90;99.90
2300;DHT22;1158;48.750;9.078;2023-05-16T05:02:39;9.90;99.90
2300;DHT22;1158;48.750;9.078;2023-05-16T05:05:08;10.00;99.90
2300;DHT22;1158;48.750;9.078;2023-05-16T05:07:34;10.00;99.90
2300;DHT22;1158;48.750;9.078;2023-05-16T05:10:01;10.00;99.90
2300;DHT22;1158;48.750;9.078;2023-05-16T05:12:28;10.00;99.90
2300;DHT22;1158;48.750;9.078;2023-05-16T05:14:55;10.10;99.90
2300;DHT22;1158;48.750;9.078;2023-05-16T05:17:22;10.10;99.90
2300;DHT22;1158;48.750;9.078;2023-05-16T05:19:48;10.10;99.90
2300;DHT22;1158;48.750;9.078;2023-05-16T05:22:16;10.10;99.90
2300;DHT22;1158;48.750;9.078;2023-05-16T05:24:43;10.10;99.90
2300;DHT22;1158;48.750;9.078;2023-05-16T05:27:10;10.20;99.90
2300;DHT22;1158;48.750;9.078;2023-05-16T05:29:36;10.30;99.90
2300;DHT22;1158;48.750;9.078;2023-05-16T05:32:04;10.30;99.90
2300;DHT22;1158;48.750;9.078;2023-05-16T05:34:31;10.20;99.90
2300;DHT22;1158;48.750;9.078;2023-05-16T05:36:57;10.30;99.90
2300;DHT22;1158;48.750;9.078;2023-05-16T05:39:25;10.30;99.90
2300;DHT22;1158;48.750;9.078;2023-05-16T05:41:52;10.40;99.90
2300;DHT22;1158;48.750;9.078;2023-05-16T05:44:19;10.40;99.90
2300;DHT22;1158;48.750;9.078;2023-05-16T05:46:46;10.40;99.90
2300;DHT22;1158;48.750;9.078;2023-05-16T05:49:12;10.40;99.90
2300;DHT22;1158;48.750;9.078;2023-05-16T05:51:39;10.40;99.90
2300;DHT22;1158;48.750;9.078;2023-05-16T05:54:06;10.40;99.90
2300;DHT22;1158;48.750;9.078;2023-05-16T05:56:34;10.50;99.90
2300;DHT22;1158;48.750;9.078;2023-05-16T05:59:01;10.40;99.90
2300;DHT22;1158;48.750;9.078;2023-05-16T06:01:28;10.50;99.90
2300;DHT22;1158;48.750;9.078;2023-05-16T06:03:54;10.50;99.90
2300;DHT22;1158;48.750;9.078;2023-05-16T06:06:22;10.40;99.90
2300;DHT22;1158;48.750;9.078;2023-05-16T06:08:48;10.50;99.90
2300;DHT22;1158;48.750;9.078;2023-05-16T06:11:15;10.60;99.90
2300;DHT22;1158;48.750;9.078;2023-05-16T06:13:43;10.70;99.90
2300;DHT22;1158;48.750;9.078;2023-05-16T06:16:10;10.70;99.90
2300;DHT22;1158;48.750;9.078;2023-05-16T06:18:36;10.70;99.90
2300;DHT22;1158;48.750;9.078;2023-05-16T06:21:03;10.80;99.90
2300;DHT22;1158;48.750;9.078;2023-05-16T06:23:30;10.80;99.90
2300;DHT22;1158;48.750;9.078;2023-05-16T06:25:57;10.90;99.90
2300;DHT22;1158;48.750;9.078;2023-05-16T06:28:24;10.90;99.90
2300;DHT22;1158;48.750;9.078;2023-05-16T06:30:52;11.00;99.90
2300;DHT22;1158;48.750;9.078;2023-05-16T06:33:18;11.20;99.90
2300;DHT22;1158;48.750;9.078;2023-05-16T06:35:45;11.20;99.90
2300;DHT22;1158;48.750;9.078;2023-05-16T06:38:13;11.40;99.90
2300;DHT22;1158;48.750;9.078;2023-05-16T06:40:40;11.50;99.90
2300;DHT22;1158;48.750;9.078;2023-05-16T06:43:06;11.50;99.90
2300;DHT22;1158;48.750;9.078;2023-05-16T06:45:33;11.20;99.90
2300;DHT22;1158;48.750;9.078;2023-05-16T06:48:01;11.30;99.90
2300;DHT22;1158;48.750;9.078;2023-05-16T06:50:28;11.30;99.90
2300;DHT22;1158;48.750;9.078;2023-05-16T06:52:54;11.30;99.90
2300;DHT22;1158;48.750;9.078;2023-05-16T06:55:21;11.30;99.90
2300;DHT22;1158;48.750;9.078;2023-05-16T06:57:48;11.20;99.90
2300;DHT22;1158;48.750;9.078;2023-05-16T07:00:15;11.20;99.90
2300;DHT22;1158;48.750;9.078;2023-05-16T07:02:42;11.20;99.90
2300;DHT22;1158;48.750;9.078;2023-05-16T07:05:10;11.10;99.90
2300;DHT22;1158;48.750;9.078;2023-05-16T07:07:37;11.00;99.90
2300;DHT22;1158;48.750;9.078;2023-05-16T07:10:04;10.90;99.90
2300;DHT22;1158;48.750;9.078;2023-05-16T07:12:31;10.90;99.90
2300;DHT22;1158;48.750;9.078;2023-05-16T07:14:57;11.00;99.90
2300;DHT22;1158;48.750;9.078;2023-05-16T07:17:24;10.90;99.90
2300;DHT22;1158;48.750;9.078;2023-05-16T07:19:51;10.90;99.90
2300;DHT22;1158;48.750;9.078;2023-05-16T07:22:19;11.00;99.90
2300;DHT22;1158;48.750;9.078;2023-05-16T07:24:46;11.00;99.90
2300;DHT22;1158;48.750;9.078;2023-05-16T07:27:12;10.90;99.90
2300;DHT22;1158;48.750;9.078;2023-05-16T07:29:40;10.90;99.90
2300;DHT22;1158;48.750;9.078;2023-05-16T07:32:07;10.90;99.90
2300;DHT22;1158;48.750;9.078;2023-05-16T07:34:33;10.90;99.90
2300;DHT22;1158;48.750;9.078;2023-05-16T07:37:00;10.90;99.90
2300;DHT22;1158;48.750;9.078;2023-05-16T07:39:29;10.90;99.90
2300;DHT22;1158;48.750;9.078;2023-05-16T07:41:57;11.10;99.90
2300;DHT22;1158;48.750;9.078;2023-05-16T07:44:23;11.20;99.90
2300;DHT22;1158;48.750;9.078;2023-05-16T07:46:50;11.30;99.90
2300;DHT22;1158;48.750;9.078;2023-05-16T07:49:17;11.40;99.90
2300;DHT22;1158;48.750;9.078;2023-05-16T07:51:43;11.40;99.90
2300;DHT22;1158;48.750;9.078;2023-05-16T07:54:10;11.30;99.90
2300;DHT22;1158;48.750;9.078;2023-05-16T07:56:38;11.10;99.90
2300;DHT22;1158;48.750;9.078;2023-05-16T07:59:05;11.20;99.90
2300;DHT22;1158;48.750;9.078;2023-05-16T08:01:32;11.20;99.90
2300;DHT22;1158;48.750;9.078;2023-05-16T08:03:59;11.30;99.90
2300;DHT22;1158;48.750;9.078;2023-05-16T08:06:26;11.10;99.90
2300;DHT22;1158;48.750;9.078;2023-05-16T08:08:54;11.20;99.90
2300;DHT22;1158;48.750;9.078;2023-05-16T08:11:20;11.30;99.90
2300;DHT22;1158;48.750;9.078;2023-05-16T08:13:49;11.30;99.90
2300;DHT22;1158;48.750;9.078;2023-05-16T08:16:16;11.10;99.90
2300;DHT22;1158;48.750;9.078;2023-05-16T08:18:42;11.10;99.90
2300;DHT22;1158;48.750;9.078;2023-05-16T08:21:09;11.10;99.90
2300;DHT22;1158;48.750;9.078;2023-05-16T08:23:36;11.10;99.90
2300;DHT22;1158;48.750;9.078;2023-05-16T08:26:02;10.90;99.90
2300;DHT22;1158;48.750;9.078;2023-05-16T08:28:29;10.90;99.90
2300;DHT22;1158;48.750;9.078;2023-05-16T08:30:57;10.90;99.90
2300;DHT22;1158;48.750;9.078;2023-05-16T08:33:24;10.80;99.90
2300;DHT22;1158;48.750;9.078;2023-05-16T08:35:51;10.80;99.90
2300;DHT22;1158;48.750;9.078;2023-05-16T08:38:18;10.80;99.90
2300;DHT22;1158;48.750;9.078;2023-05-16T08:40:45;10.80;99.90
2300;DHT22;1158;48.750;9.078;2023-05-16T08:43:12;10.60;99.90
2300;DHT22;1158;48.750;9.078;2023-05-16T08:45:39;10.70;99.90
2300;DHT22;1158;48.750;9.078;2023-05-16T08:48:09;10.90;99.90
2300;DHT22;1158;48.750;9.078;2023-05-16T08:50:36;10.90;99.90
2300;DHT22;1158;48.750;9.078;2023-05-16T08:53:04;10.90;99.90
2300;DHT22;1158;48.750;9.078;2023-05-16T08:55:32;10.90;99.90
2300;DHT22;1158;48.750;9.078;2023-05-16T08:58:00;11.00;99.90
2300;DHT22;1158;48.750;9.078;2023-05-16T09:00:27;11.00;99.90
2300;DHT22;1158;48.750;9.078;2023-05-16T09:02:54;10.80;99.90
2300;DHT22;1158;48.750;9.078;2023-05-16T09:05:22;10.80;99.90
2300;DHT22;1158;48.750;9.078;2023-05-16T09:07:49;10.90;99.90
2300;DHT22;1158;48.750;9.078;2023-05-16T09:10:16;11.10;99.90
2300;DHT22;1158;48.750;9.078;2023-05-16T09:12:43;11.30;99.90
2300;DHT22;1158;48.750;9.078;2023-05-16T09:15:10;11.40;99.90
2300;DHT22;1158;48.750;9.078;2023-05-16T09:17:38;11.50;99.90
2300;DHT22;1158;48.750;9.078;2023-05-16T09:20:10;11.50;99.90
2300;DHT22;1158;48.750;9.078;2023-05-16T09:22:38;11.50;99.90
2300;DHT22;1158;48.750;9.078;2023-05-16T09:25:06;11.50;99.90
2300;DHT22;1158;48.750;9.078;2023-05-16T09:27:33;11.30;99.90
2300;DHT22;1158;48.750;9.078;2023-05-16T09:30:00;11.40;99.90
2300;DHT22;1158;48.750;9.078;2023-05-16T09:32:27;11.40;99.90
2300;DHT22;1158;48.750;9.078;2023-05-16T09:34:53;11.20;99.90
2300;DHT22;1158;48.750;9.078;2023-05-16T09:37:23;11.50;99.90
2300;DHT22;1158;48.750;9.078;2023-05-16T09:39:52;11.40;99.90
2300;DHT22;1158;48.750;9.078;2023-05-16T09:42:20;11.60;99.90
2300;DHT22;1158;48.750;9.078;2023-05-16T09:44:48;11.70;99.90
2300;DHT22;1158;48.750;9.078;2023-05-16T09:47:15;11.80;99.90
2300;DHT22;1158;48.750;9.078;2023-05-16T09:49:43;12.00;99.90
2300;DHT22;1158;48.750;9.078;2023-05-16T09:52:10;12.00;99.90
2300;DHT22;1158;48.750;9.078;2023-05-16T09:54:38;12.30;99.90
2300;DHT22;1158;48.750;9.078;2023-05-16T09:57:06;12.40;99.90
2300;DHT22;1158;48.750;9.078;2023-05-16T09:59:35;12.50;99.90
2300;DHT22;1158;48.750;9.078;2023-05-16T10:02:02;12.80;99.90
2300;DHT22;1158;48.750;9.078;2023-05-16T10:04:30;12.70;99.90
2300;DHT22;1158;48.750;9.078;2023-05-16T10:07:00;13.00;99.90
2300;DHT22;1158;48.750;9.078;2023-05-16T10:09:27;12.90;99.90
2300;DHT22;1158;48.750;9.078;2023-05-16T10:11:55;12.70;99.90
2300;DHT22;1158;48.750;9.078;2023-05-16T10:14:25;12.30;99.90
2300;DHT22;1158;48.750;9.078;2023-05-16T10:16:52;12.30;99.90
2300;DHT22;1158;48.750;9.078;2023-05-16T10:19:20;12.20;99.90
2300;DHT22;1158;48.750;9.078;2023-05-16T10:21:52;12.10;99.90
2300;DHT22;1158;48.750;9.078;2023-05-16T10:24:23;11.90;99.90
2300;DHT22;1158;48.750;9.078;2023-05-16T10:26:51;11.70;99.90
2300;DHT22;1158;48.750;9.078;2023-05-16T10:29:18;11.60;99.90
2300;DHT22;1158;48.750;9.078;2023-05-16T10:31:47;11.50;99.90
2300;DHT22;1158;48.750;9.078;2023-05-16T10:34:14;11.40;99.90
2300;DHT22;1158;48.750;9.078;2023-05-16T10:36:42;11.30;99.90
2300;DHT22;1158;48.750;9.078;2023-05-16T10:39:09;11.40;99.90
2300;DHT22;1158;48.750;9.078;2023-05-16T10:41:37;11.40;99.90
2300;DHT22;1158;48.750;9.078;2023-05-16T10:44:12;11.50;99.90
2300;DHT22;1158;48.750;9.078;2023-05-16T10:46:39;11.60;99.90
2300;DHT22;1158;48.750;9.078;2023-05-16T10:49:20;11.80;99.90
2300;DHT22;1158;48.750;9.078;2023-05-16T10:52:02;11.80;99.90
2300;DHT22;1158;48.750;9.078;2023-05-16T10:54:34;11.70;99.90
2300;DHT22;1158;48.750;9.078;2023-05-16T10:57:04;11.60;99.90
2300;DHT22;1158;48.750;9.078;2023-05-16T10:59:40;11.60;99.90
2300;DHT22;1158;48.750;9.078;2023-05-16T11:02:22;11.30;99.90
2300;DHT22;1158;48.750;9.078;2023-05-16T11:04:51;11.30;99.90
2300;DHT22;1158;48.750;9.078;2023-05-16T11:07:19;11.30;99.90
2300;DHT22;1158;48.750;9.078;2023-05-16T11:10:01;11.20;99.90
2300;DHT22;1158;48.750;9.078;2023-05-16T11:12:36;11.10;99.90
2300;DHT22;1158;48.750;9.078;2023-05-16T11:15:17;10.90;99.90
2300;DHT22;1158;48.750;9.078;2023-05-16T11:17:44;11.00;99.90
2300;DHT22;1158;48.750;9.078;2023-05-16T11:20:25;10.90;99.90
2300;DHT22;1158;48.750;9.078;2023-05-16T11:23:17;10.70;99.90
2300;DHT22;1158;48.750;9.078;2023-05-16T11:25:45;10.50;99.90
2300;DHT22;1158;48.750;9.078;2023-05-16T11:28:12;10.50;99.90
2300;DHT22;1158;48.750;9.078;2023-05-16T11:30:42;10.40;99.90
2300;DHT22;1158;48.750;9.078;2023-05-16T11:33:08;10.20;99.90
2300;DHT22;1158;48.750;9.078;2023-05-16T11:35:37;10.30;99.90
2300;DHT22;1158;48.750;9.078;2023-05-16T11:38:04;10.30;99.90
2300;DHT22;1158;48.750;9.078;2023-05-16T11:40:30;10.30;99.90
2300;DHT22;1158;48.750;9.078;2023-05-16T11:42:59;10.20;99.90
2300;DHT22;1158;48.750;9.078;2023-05-16T11:45:27;10.20;99.90
2300;DHT22;1158;48.750;9.078;2023-05-16T11:48:00;10.20;99.90
2300;DHT22;1158;48.750;9.078;2023-05-16T11:50:28;10.10;99.90
2300;DHT22;1158;48.750;9.078;2023-05-16T11:52:56;10.20;99.90
2300;DHT22;1158;48.750;9.078;2023-05-16T11:55:25;10.10;99.90
2300;DHT22;1158;48.750;9.078;2023-05-16T11:57:52;10.10;99.90
2300;DHT22;1158;48.750;9.078;2023-05-16T12:00:20;10.10;99.90
2300;DHT22;1158;48.750;9.078;2023-05-16T12:02:48;10.30;99.90
2300;DHT22;1158;48.750;9.078;2023-05-16T12:05:16;10.40;99.90
2300;DHT22;1158;48.750;9.078;2023-05-16T12:07:45;10.40;99.90
2300;DHT22;1158;48.750;9.078;2023-05-16T12:10:15;10.40;99.90
2300;DHT22;1158;48.750;9.078;2023-05-16T12:12:44;10.40;99.90
2300;DHT22;1158;48.750;9.078;2023-05-16T12:15:11;10.50;99.90
2300;DHT22;1158;48.750;9.078;2023-05-16T12:17:39;10.70;99.90
2300;DHT22;1158;48.750;9.078;2023-05-16T12:20:08;10.80;99.90
2300;DHT22;1158;48.750;9.078;2023-05-16T12:22:38;10.90;99.90
2300;DHT22;1158;48.750;9.078;2023-05-16T12:25:26;11.10;99.90
2300;DHT22;1158;48.750;9.078;2023-05-16T12:27:53;11.20;99.90
2300;DHT22;1158;48.750;9.078;2023-05-16T12:30:21;11.20;99.90
2300;DHT22;1158;48.750;9.078;2023-05-16T12:32:54;11.20;99.90
2300;DHT22;1158;48.750;9.078;2023-05-16T12:35:21;11.20;99.90
2300;DHT22;1158;48.750;9.078;2023-05-16T12:37:48;11.20;99.90
2300;DHT22;1158;48.750;9.078;2023-05-16T12:40:16;11.20;99.90
2300;DHT22;1158;48.750;9.078;2023-05-16T12:42:44;11.30;99.90
2300;DHT22;1158;48.750;9.078;2023-05-16T12:45:14;11.50;99.90
2300;DHT22;1158;48.750;9.078;2023-05-16T12:47:42;11.50;99.90
2300;DHT22;1158;48.750;9.078;2023-05-16T12:50:09;11.30;99.90
2300;DHT22;1158;48.750;9.078;2023-05-16T12:52:45;11.40;99.90
2300;DHT22;1158;48.750;9.078;2023-05-16T12:55:12;11.50;99.90
2300;DHT22;1158;48.750;9.078;2023-05-16T12:57:41;11.20;99.90
2300;DHT22;1158;48.750;9.078;2023-05-16T13:00:11;11.00;99.90
2300;DHT22;1158;48.750;9.078;2023-05-16T13:02:38;10.80;99.90
2300;DHT22;1158;48.750;9.078;2023-05-16T13:05:05;10.70;99.90
2300;DHT22;1158;48.750;9.078;2023-05-16T13:07:32;10.80;99.90
2300;DHT22;1158;48.750;9.078;2023-05-16T13:09:59;10.60;99.90
2300;DHT22;1158;48.750;9.078;2023-05-16T13:12:26;10.60;99.90
2300;DHT22;1158;48.750;9.078;2023-05-16T13:14:53;10.60;99.90
2300;DHT22;1158;48.750;9.078;2023-05-16T13:17:21;10.60;99.90
2300;DHT22;1158;48.750;9.078;2023-05-16T13:19:49;10.60;99.90
2300;DHT22;1158;48.750;9.078;2023-05-16T13:22:16;10.50;99.90
2300;DHT22;1158;48.750;9.078;2023-05-16T13:24:43;10.50;99.90
2300;DHT22;1158;48.750;9.078;2023-05-16T13:27:10;10.30;99.90
2300;DHT22;1158;48.750;9.078;2023-05-16T13:29:36;10.30;99.90
2300;DHT22;1158;48.750;9.078;2023-05-16T13:32:03;10.20;99.90
2300;DHT22;1158;48.750;9.078;2023-05-16T13:34:33;10.00;99.90
2300;DHT22;1158;48.750;9.078;2023-05-16T13:37:00;10.10;99.90
2300;DHT22;1158;48.750;9.078;2023-05-16T13:39:26;10.10;99.90
2300;DHT22;1158;48.750;9.078;2023-05-16T13:41:54;10.10;99.90
2300;DHT22;1158;48.750;9.078;2023-05-16T13:44:20;10.10;99.90
2300;DHT22;1158;48.750;9.078;2023-05-16T13:46:47;10.20;99.90
2300;DHT22;1158;48.750;9.078;2023-05-16T13:49:14;10.10;99.90
2300;DHT22;1158;48.750;9.078;2023-05-16T13:51:42;10.00;99.90
2300;DHT22;1158;48.750;9.078;2023-05-16T13:54:09;10.00;99.90
2300;DHT22;1158;48.750;9.078;2023-05-16T13:56:36;10.10;99.90
2300;DHT22;1158;48.750;9.078;2023-05-16T13:59:03;10.10;99.90
2300;DHT22;1158;48.750;9.078;2023-05-16T14:01:29;10.10;99.90
2300;DHT22;1158;48.750;9.078;2023-05-16T14:03:56;10.30;99.90
2300;DHT22;1158;48.750;9.078;2023-05-16T14:06:23;10.40;99.90
2300;DHT22;1158;48.750;9.078;2023-05-16T14:08:51;10.50;99.90
2300;DHT22;1158;48.750;9.078;2023-05-16T14:11:17;10.50;99.90
2300;DHT22;1158;48.750;9.078;2023-05-16T14:13:47;10.50;99.90
2300;DHT22;1158;48.750;9.078;2023-05-16T14:16:14;10.50;99.90
2300;DHT22;1158;48.750;9.078;2023-05-16T14:18:40;10.50;99.90
2300;DHT22;1158;48.750;9.078;2023-05-16T14:21:07;10.60;99.90
2300;DHT22;1158;48.750;9.078;2023-05-16T14:23:34;10.70;99.90
2300;DHT22;1158;48.750;9.078;2023-05-16T14:26:02;10.80;99.90
2300;DHT22;1158;48.750;9.078;2023-05-16T14:28:30;10.90;99.90
2300;DHT22;1158;48.750;9.078;2023-05-16T14:30:57;10.90;99.90
2300;DHT22;1158;48.750;9.078;2023-05-16T14:33:23;10.90;99.90
2300;DHT22;1158;48.750;9.078;2023-05-16T14:35:50;10.90;99.90
2300;DHT22;1158;48.750;9.078;2023-05-16T14:38:17;10.90;99.90
2300;DHT22;1158;48.750;9.078;2023-05-16T14:40:44;11.00;99.90
2300;DHT22;1158;48.750;9.078;2023-05-16T14:43:12;11.00;99.90
2300;DHT22;1158;48.750;9.078;2023-05-16T14:45:39;11.00;99.90
2300;DHT22;1158;48.750;9.078;2023-05-16T14:48:06;11.20;99.90
2300;DHT22;1158;48.750;9.078;2023-05-16T14:50:32;11.20;99.90
2300;DHT22;1158;48.750;9.078;2023-05-16T14:52:59;11.40;99.90
2300;DHT22;1158;48.750;9.078;2023-05-16T14:55:26;11.50;99.90
2300;DHT22;1158;48.750;9.078;2023-05-16T14:57:53;11.40;99.90
2300;DHT22;1158;48.750;9.078;2023-05-16T15:00:23;11.40;99.90
2300;DHT22;1158;48.750;9.078;2023-05-16T15:02:50;11.50;99.90
2300;DHT22;1158;48.750;9.078;2023-05-16T15:05:17;11.60;99.90
2300;DHT22;1158;48.750;9.078;2023-05-16T15:07:43;11.50;99.90
2300;DHT22;1158;48.750;9.078;2023-05-16T15:10:10;11.30;99.90
2300;DHT22;1158;48.750;9.078;2023-05-16T15:12:37;11.20;99.90
2300;DHT22;1158;48.750;9.078;2023-05-16T15:15:06;11.20;99.90
2300;DHT22;1158;48.750;9.078;2023-05-16T15:17:37;11.40;99.90
2300;DHT22;1158;48.750;9.078;2023-05-16T15:20:05;11.60;99.90
2300;DHT22;1158;48.750;9.078;2023-05-16T15:22:32;11.90;99.90
2300;DHT22;1158;48.750;9.078;2023-05-16T15:24:59;12.20;99.90
2300;DHT22;1158;48.750;9.078;2023-05-16T15:27:25;12.40;99.90
2300;DHT22;1158;48.750;9.078;2023-05-16T15:29:52;12.30;99.90
2300;DHT22;1158;48.750;9.078;2023-05-16T15:32:19;12.50;99.90
2300;DHT22;1158;48.750;9.078;2023-05-16T15:34:48;13.00;99.90
2300;DHT22;1158;48.750;9.078;2023-05-16T15:37:15;13.70;99.90
2300;DHT22;1158;48.750;9.078;2023-05-16T15:39:41;14.40;99.90
2300;DHT22;1158;48.750;9.078;2023-05-16T15:42:09;13.90;99.90
2300;DHT22;1158;48.750;9.078;2023-05-16T15:44:36;13.50;99.90
2300;DHT22;1158;48.750;9.078;2023-05-16T15:47:03;13.00;99.90
2300;DHT22;1158;48.750;9.078;2023-05-16T15:49:30;12.60;99.90
2300;DHT22;1158;48.750;9.078;2023-05-16T15:51:58;12.30;99.90
2300;DHT22;1158;48.750;9.078;2023-05-16T15:54:26;12.20;99.90
2300;DHT22;1158;48.750;9.078;2023-05-16T15:56:53;11.90;99.90
2300;DHT22;1158;48.750;9.078;2023-05-16T15:59:20;12.00;99.90
2300;DHT22;1158;48.750;9.078;2023-05-16T16:01:46;12.10;99.90
2300;DHT22;1158;48.750;9.078;2023-05-16T16:04:13;12.20;99.90
2300;DHT22;1158;48.750;9.078;2023-05-16T16:06:40;12.40;99.90
2300;DHT22;1158;48.750;9.078;2023-05-16T16:09:08;12.40;99.90
2300;DHT22;1158;48.750;9.078;2023-05-16T16:11:36;12.40;99.90